createdAt,value
2018-01-10T00:02:14.242Z,72.50
2018-01-10T00:04:41.801Z,72.40
2018-01-10T00:07:09.381Z,72.70
2018-01-10T00:09:36.953Z,72.60
2018-01-10T00:12:04.553Z,71.90
2018-01-10T00:14:32.115Z,72.30
2018-01-10T00:16:59.701Z,72.00
2018-01-10T00:19:27.266Z,72.20
2018-01-10T00:21:54.849Z,72.30
2018-01-10T00:24:22.413Z,72.40
2018-01-10T00:26:50.014Z,73.30
2018-01-10T00:29:17.579Z,73.10
2018-01-10T00:31:45.170Z,72.50
2018-01-10T00:34:12.747Z,72.40
2018-01-10T00:36:40.315Z,72.50
2018-01-10T00:39:07.903Z,72.70
2018-01-10T00:41:35.466Z,72.90
2018-01-10T00:44:03.061Z,72.90
2018-01-10T00:46:30.621Z,72.50
2018-01-10T00:48:58.205Z,72.60
2018-01-10T00:51:25.774Z,72.50
2018-01-10T00:53:54.126Z,72.60
2018-01-10T00:56:21.685Z,72.60
2018-01-10T00:58:49.275Z,73.10
2018-01-10T01:01:16.833Z,72.30
2018-01-10T01:03:45.177Z,72.10
2018-01-10T01:06:12.740Z,72.10
2018-01-10T01:08:40.326Z,72.30
2018-01-10T01:11:07.901Z,72.20
2018-01-10T01:13:35.485Z,72.20
2018-01-10T01:16:03.053Z,72.50
2018-01-10T01:18:30.649Z,72.60
2018-01-10T01:20:58.213Z,72.70
2018-01-10T01:23:26.572Z,72.30
2018-01-10T01:25:54.138Z,72.30
2018-01-10T01:28:21.732Z,72.20
2018-01-10T01:30:49.296Z,72.90
2018-01-10T01:33:16.887Z,73.20
2018-01-10T01:35:44.454Z,72.90
2018-01-10T01:38:12.047Z,72.40
2018-01-10T01:40:40.380Z,72.00
2018-01-10T01:43:07.949Z,72.00
2018-01-10T01:45:35.541Z,71.80
2018-01-10T01:48:03.867Z,72.10
2018-01-10T01:50:31.457Z,72.20
2018-01-10T01:52:59.024Z,72.30
2018-01-10T01:55:26.606Z,72.00
2018-01-10T01:57:54.938Z,72.60
2018-01-10T02:00:22.526Z,72.60
2018-01-10T02:02:50.872Z,71.80
2018-01-10T02:05:18.456Z,71.80
2018-01-10T02:07:46.016Z,72.00
2018-01-10T02:10:13.608Z,71.80
2018-01-10T02:12:41.170Z,72.80
2018-01-10T02:15:08.763Z,72.50
2018-01-10T02:17:36.325Z,72.70
2018-01-10T02:20:03.925Z,71.90
2018-01-10T02:22:32.258Z,71.70
2018-01-10T02:24:59.845Z,71.70
2018-01-10T02:27:27.417Z,72.00
2018-01-10T02:29:57.418Z,71.60
2018-01-10T02:32:24.982Z,71.60
2018-01-10T02:34:52.570Z,71.80
2018-01-10T02:37:20.137Z,71.70
2018-01-10T02:39:47.721Z,72.40
2018-01-10T02:42:26.873Z,71.60
2018-01-10T02:44:54.456Z,71.60
2018-01-10T02:47:22.788Z,71.70
2018-01-10T02:49:50.377Z,71.70
2018-01-10T02:52:17.942Z,71.70
2018-01-10T02:54:45.525Z,71.30
2018-01-10T02:57:13.853Z,71.70
2018-01-10T02:59:41.438Z,71.00
2018-01-10T03:02:09.004Z,71.20
2018-01-10T03:04:37.334Z,71.50
2018-01-10T03:07:04.919Z,71.50
2018-01-10T03:09:32.489Z,71.20
2018-01-10T03:12:00.083Z,71.70
2018-01-10T03:14:27.645Z,72.40
2018-01-10T03:16:55.225Z,71.90
2018-01-10T03:19:22.788Z,71.90
2018-01-10T03:21:50.369Z,71.40
2018-01-10T03:24:17.937Z,71.50
2018-01-10T03:26:45.527Z,71.70
2018-01-10T03:29:13.859Z,72.10
2018-01-10T03:31:41.449Z,72.00
2018-01-10T03:34:09.780Z,72.00
2018-01-10T03:36:37.367Z,71.90
2018-01-10T03:39:04.922Z,73.00
2018-01-10T03:41:32.521Z,71.80
2018-01-10T03:44:00.098Z,71.50
2018-01-10T03:46:27.680Z,71.90
2018-01-10T03:48:55.242Z,71.40
2018-01-10T03:51:22.826Z,72.00
2018-01-10T03:53:50.425Z,72.70
2018-01-10T03:56:18.760Z,71.80
2018-01-10T03:58:46.327Z,71.80
2018-01-10T04:01:13.917Z,72.20
2018-01-10T04:03:41.478Z,72.60
2018-01-10T04:06:09.068Z,72.10
2018-01-10T04:08:36.631Z,72.40
2018-01-10T04:11:04.219Z,72.60
2018-01-10T04:13:31.781Z,71.50
2018-01-10T04:15:59.387Z,72.00
2018-01-10T04:18:26.950Z,71.60
2018-01-10T04:20:54.514Z,71.90
2018-01-10T04:23:22.097Z,72.00
2018-01-10T04:25:49.659Z,72.00
2018-01-10T04:28:17.248Z,71.60
2018-01-10T04:30:45.578Z,71.50
2018-01-10T04:33:13.174Z,71.50
2018-01-10T04:35:40.746Z,71.40
2018-01-10T04:38:08.341Z,71.20
2018-01-10T04:40:35.923Z,71.40
2018-01-10T04:43:04.277Z,71.30
2018-01-10T04:45:31.843Z,71.30
2018-01-10T04:47:59.429Z,72.20
2018-01-10T04:50:26.993Z,71.60
2018-01-10T04:52:54.584Z,71.50
2018-01-10T04:55:22.157Z,72.00
2018-01-10T05:00:24.489Z,72.60
2018-01-10T05:02:52.069Z,72.50
2018-01-10T05:05:20.410Z,72.30
2018-01-10T05:07:48.040Z,72.30
2018-01-10T05:10:16.357Z,72.30
2018-01-10T05:12:43.950Z,72.30
2018-01-10T05:15:11.518Z,72.30
2018-01-10T05:17:39.144Z,72.50
2018-01-10T05:20:06.753Z,72.30
2018-01-10T05:22:34.344Z,72.40
2018-01-10T05:25:01.916Z,72.60
2018-01-10T05:27:29.514Z,73.00
2018-01-10T05:29:57.840Z,72.50
2018-01-10T05:32:25.488Z,72.50
2018-01-10T05:34:53.058Z,73.40
2018-01-10T05:37:20.624Z,73.20
2018-01-10T05:39:48.245Z,72.90
2018-01-10T05:42:15.809Z,72.20
2018-01-10T05:44:43.413Z,72.30
2018-01-10T05:47:10.981Z,72.00
2018-01-10T05:49:38.576Z,72.30
2018-01-10T05:52:06.141Z,72.40
2018-01-10T05:54:33.744Z,71.90
2018-01-10T05:57:02.818Z,72.40
2018-01-10T05:59:30.414Z,71.80
2018-01-10T06:01:57.981Z,71.90
2018-01-10T06:04:25.570Z,72.40
2018-01-10T06:06:53.140Z,71.80
2018-01-10T06:09:20.730Z,71.70
2018-01-10T06:11:48.302Z,71.90
2018-01-10T06:14:15.889Z,72.60
2018-01-10T06:16:44.281Z,71.90
2018-01-10T06:19:11.869Z,71.90
2018-01-10T06:21:39.430Z,72.40
2018-01-10T06:24:07.017Z,72.40
2018-01-10T06:26:34.594Z,72.10
2018-01-10T06:29:02.952Z,71.70
2018-01-10T06:31:30.517Z,71.70
2018-01-10T06:33:58.097Z,72.50
2018-01-10T06:36:26.442Z,72.40
2018-01-10T06:38:54.033Z,72.40
2018-01-10T06:41:21.604Z,72.10
2018-01-10T06:43:49.194Z,72.00
2018-01-10T06:46:16.759Z,71.90
2018-01-10T06:48:44.343Z,72.20
2018-01-10T06:51:12.050Z,72.60
2018-01-10T06:53:39.639Z,73.10
2018-01-10T06:56:07.206Z,73.80
2018-01-10T06:58:34.768Z,73.30
2018-01-10T07:01:02.360Z,73.10
2018-01-10T07:03:29.922Z,72.60
2018-01-10T07:05:57.514Z,72.20
2018-01-10T07:08:25.082Z,73.10
2018-01-10T07:10:52.670Z,72.80
2018-01-10T07:13:20.246Z,72.50
2018-01-10T07:15:47.833Z,73.00
2018-01-10T07:18:15.393Z,73.50
2018-01-10T07:20:42.973Z,73.80
2018-01-10T07:23:10.537Z,73.10
2018-01-10T07:25:38.119Z,73.20
2018-01-10T07:28:05.687Z,73.20
2018-01-10T07:30:33.283Z,73.20
2018-01-10T07:33:00.849Z,72.70
2018-01-10T07:35:28.430Z,73.00
2018-01-10T07:37:55.999Z,73.70
2018-01-10T07:40:23.576Z,73.00
2018-01-10T07:42:51.165Z,72.70
2018-01-10T07:45:19.515Z,73.00
2018-01-10T07:47:47.077Z,73.00
2018-01-10T07:50:14.670Z,73.20
2018-01-10T07:52:43.054Z,73.20
2018-01-10T07:55:10.650Z,73.20
2018-01-10T07:57:38.218Z,72.90
2018-01-10T08:00:05.796Z,72.90
2018-01-10T08:02:33.375Z,72.90
2018-01-10T08:05:00.967Z,74.20
2018-01-10T08:07:28.533Z,73.20
2018-01-10T08:09:56.582Z,73.20
2018-01-10T08:12:24.161Z,73.20
2018-01-10T08:14:52.014Z,73.00
2018-01-10T08:17:19.606Z,73.00
2018-01-10T08:19:47.178Z,73.10
2018-01-10T08:22:14.771Z,73.10
2018-01-10T08:24:42.363Z,72.90
2018-01-10T08:27:09.958Z,73.20
2018-01-10T08:29:38.054Z,73.30
2018-01-10T08:32:06.402Z,73.10
2018-01-10T08:34:33.966Z,73.00
2018-01-10T08:37:01.559Z,72.90
2018-01-10T08:39:29.889Z,73.50
2018-01-10T08:41:57.482Z,73.50
2018-01-10T08:44:25.809Z,73.40
2018-01-10T08:46:53.403Z,73.30
2018-01-10T08:49:20.977Z,73.20
2018-01-10T08:51:48.566Z,73.40
2018-01-10T08:54:16.135Z,73.70
2018-01-10T08:56:43.724Z,73.40
2018-01-10T08:59:11.285Z,73.50
2018-01-10T09:01:38.873Z,74.90
2018-01-10T09:04:06.442Z,75.40
2018-01-10T09:06:34.801Z,75.50
2018-01-10T09:09:03.140Z,76.00
2018-01-10T09:11:30.725Z,75.30
2018-01-10T09:13:58.290Z,75.20
2018-01-10T09:16:25.873Z,75.30
2018-01-10T09:18:54.202Z,75.20
2018-01-10T09:21:21.803Z,75.20
2018-01-10T09:23:49.369Z,75.50
2018-01-10T09:26:17.730Z,75.50
2018-01-10T09:28:45.292Z,75.50
2018-01-10T09:31:13.648Z,75.70
2018-01-10T09:33:41.232Z,75.60
2018-01-10T09:36:08.818Z,75.40
2018-01-10T09:38:36.401Z,75.30
2018-01-10T09:41:03.961Z,75.10
2018-01-10T09:43:31.549Z,75.40
2018-01-10T09:45:59.123Z,75.40
2018-01-10T09:48:26.716Z,75.40
2018-01-10T09:50:54.280Z,75.40
2018-01-10T09:53:21.868Z,75.40
2018-01-10T09:55:49.440Z,75.10
2018-01-10T09:58:17.032Z,75.20
2018-01-10T10:00:44.601Z,75.00
2018-01-10T10:03:12.193Z,74.20
2018-01-10T10:05:39.768Z,74.70
2018-01-10T10:08:07.353Z,75.30
2018-01-10T10:10:35.692Z,74.20
2018-01-10T10:13:03.288Z,74.10
2018-01-10T10:15:30.858Z,74.70
2018-01-10T10:17:58.460Z,74.40
2018-01-10T10:20:26.034Z,74.30
2018-01-10T10:22:53.627Z,74.30
2018-01-10T10:25:21.960Z,71.10
2018-01-10T10:27:49.547Z,71.10
2018-01-10T10:30:17.111Z,71.40
2018-01-10T10:32:44.701Z,71.80
2018-01-10T10:35:12.267Z,70.90
2018-01-10T10:37:39.864Z,71.30
2018-01-10T10:40:07.425Z,70.40
2018-01-10T10:42:34.998Z,71.30
2018-01-10T10:45:02.594Z,70.80
2018-01-10T10:47:30.932Z,70.80
2018-01-10T10:49:58.528Z,70.70
2018-01-10T10:52:26.098Z,70.40
2018-01-10T10:54:53.686Z,69.50
2018-01-10T10:57:21.250Z,68.30
2018-01-10T10:59:48.848Z,69.70
2018-01-10T11:02:17.191Z,68.80
2018-01-10T11:04:44.785Z,68.80
2018-01-10T11:07:12.360Z,68.60
2018-01-10T11:09:39.950Z,69.50
2018-01-10T11:12:07.512Z,68.80
2018-01-10T11:14:35.105Z,68.40
2018-01-10T11:17:02.684Z,70.10
2018-01-10T11:19:30.282Z,70.10
2018-01-10T11:21:57.852Z,67.90
2018-01-10T11:24:25.451Z,69.90
2018-01-10T11:26:53.022Z,70.30
2018-01-10T11:29:21.377Z,70.60
2018-01-10T11:31:48.946Z,70.40
2018-01-10T11:34:16.544Z,70.70
2018-01-10T11:36:44.121Z,70.60
2018-01-10T11:39:11.707Z,69.40
2018-01-10T11:41:39.284Z,69.90
2018-01-10T11:44:06.874Z,69.70
2018-01-10T11:46:34.453Z,69.80
2018-01-10T11:49:02.122Z,70.10
2018-01-10T11:51:29.694Z,69.70
2018-01-10T11:53:57.261Z,69.50
2018-01-10T11:58:58.777Z,68.30
2018-01-10T12:01:26.365Z,68.90
2018-01-10T12:03:53.925Z,67.40
2018-01-10T12:06:21.505Z,69.30
2018-01-10T12:08:49.073Z,68.30
2018-01-10T12:11:16.702Z,68.30
2018-01-10T12:13:44.269Z,69.40
2018-01-10T12:16:11.863Z,67.50
2018-01-10T12:18:39.429Z,67.90
2018-01-10T12:21:07.786Z,67.90
2018-01-10T12:23:35.357Z,67.90
2018-01-10T12:26:02.950Z,67.60
2018-01-10T12:28:30.522Z,67.20
2018-01-10T12:30:58.122Z,68.40
2018-01-10T12:33:25.684Z,69.00
2018-01-10T12:35:53.275Z,68.40
2018-01-10T12:38:21.618Z,68.50
2018-01-10T12:40:49.220Z,68.50
2018-01-10T12:43:16.796Z,67.90
2018-01-10T12:45:44.384Z,68.50
2018-01-10T12:48:11.953Z,69.50
2018-01-10T12:50:39.552Z,69.20
2018-01-10T12:53:07.174Z,68.90
2018-01-10T12:55:34.769Z,68.30
2018-01-10T12:58:02.349Z,67.80
2018-01-10T13:00:29.946Z,68.10
2018-01-10T13:02:57.505Z,67.10
2018-01-10T13:05:25.104Z,68.00
2018-01-10T13:07:53.450Z,68.50
2018-01-10T13:10:21.015Z,68.40
2018-01-10T13:12:49.398Z,68.50
2018-01-10T13:15:16.974Z,68.50
2018-01-10T13:17:45.335Z,68.00
2018-01-10T13:20:12.909Z,68.00
2018-01-10T13:22:40.526Z,67.30
2018-01-10T13:25:08.098Z,66.50
2018-01-10T13:27:35.707Z,68.30
2018-01-10T13:30:03.339Z,68.20
2018-01-10T13:32:31.706Z,67.80
2018-01-10T13:35:00.052Z,68.90
2018-01-10T13:37:27.654Z,68.80
2018-01-10T13:39:55.652Z,67.70
2018-01-10T13:42:23.245Z,68.30
2018-01-10T13:44:50.823Z,67.40
2018-01-10T13:47:18.531Z,67.90
2018-01-10T13:49:46.098Z,67.70
2018-01-10T13:52:13.681Z,67.70
2018-01-10T13:54:41.248Z,68.40
2018-01-10T13:57:09.498Z,66.70
2018-01-10T13:59:38.389Z,67.80
2018-01-10T14:02:07.426Z,67.60
2018-01-10T14:04:36.042Z,67.60
2018-01-10T14:07:04.713Z,67.90
2018-01-10T14:09:33.515Z,68.20
2018-01-10T14:12:01.965Z,68.20
2018-01-10T14:14:30.485Z,68.00
2018-01-10T14:16:59.582Z,67.60
2018-01-10T14:19:28.802Z,67.70
2018-01-10T14:21:57.992Z,65.40
2018-01-10T14:24:26.448Z,65.50
2018-01-10T14:26:56.025Z,66.50
2018-01-10T14:29:24.172Z,66.60
2018-01-10T14:31:52.266Z,66.70
2018-01-10T14:34:20.523Z,67.30
2018-01-10T14:36:48.271Z,66.10
2018-01-10T14:39:15.868Z,67.10
2018-01-10T14:41:44.199Z,67.90
2018-01-10T14:44:11.797Z,67.80
2018-01-10T14:46:39.369Z,67.40
2018-01-10T14:49:07.734Z,67.70
2018-01-10T14:51:35.314Z,67.70
2018-01-10T14:54:02.906Z,69.00
2018-01-10T14:56:30.469Z,68.00
2018-01-10T14:58:58.054Z,67.80
2018-01-10T15:01:25.628Z,67.90
2018-01-10T15:03:53.230Z,67.90
2018-01-10T15:06:20.797Z,67.90
2018-01-10T15:08:48.395Z,68.10
2018-01-10T15:11:15.968Z,68.40
2018-01-10T15:13:43.558Z,68.50
2018-01-10T15:16:11.144Z,68.40
2018-01-10T15:18:38.738Z,68.10
2018-01-10T15:21:07.157Z,68.10
2018-01-10T15:23:34.767Z,68.20
2018-01-10T15:26:02.343Z,68.60
2018-01-10T15:28:29.926Z,70.00
2018-01-10T15:30:57.481Z,70.70
2018-01-10T15:33:25.847Z,68.80
2018-01-10T15:35:53.413Z,68.80
2018-01-10T15:38:21.765Z,68.60
2018-01-10T15:40:49.338Z,68.60
2018-01-10T15:43:17.697Z,68.40
2018-01-10T15:45:45.270Z,68.40
2018-01-10T15:48:12.839Z,68.20
2018-01-10T15:50:41.201Z,68.60
2018-01-10T15:53:08.777Z,68.40
2018-01-10T15:55:37.137Z,68.20
2018-01-10T15:58:04.701Z,68.20
2018-01-10T16:00:32.304Z,69.00
2018-01-10T16:02:59.872Z,69.50
2018-01-10T16:05:27.461Z,69.60
2018-01-10T16:07:55.025Z,69.50
2018-01-10T16:10:22.618Z,69.70
2018-01-10T16:12:50.946Z,69.30
2018-01-10T16:15:19.303Z,69.40
2018-01-10T16:17:46.864Z,69.40
2018-01-10T16:20:14.466Z,69.20
2018-01-10T16:22:42.042Z,69.50
2018-01-10T16:25:11.350Z,69.90
2018-01-10T16:27:39.267Z,69.90
2018-01-10T16:30:06.872Z,69.80
2018-01-10T16:32:35.219Z,69.60
2018-01-10T16:35:02.827Z,69.60
2018-01-10T16:37:31.116Z,69.60
2018-01-10T16:39:58.790Z,70.00
2018-01-10T16:42:26.365Z,69.80
2018-01-10T16:44:53.962Z,69.60
2018-01-10T16:47:21.533Z,69.40
2018-01-10T16:49:49.127Z,69.50
2018-01-10T16:52:16.698Z,69.90
2018-01-10T16:54:44.277Z,69.80
2018-01-10T16:57:11.862Z,69.30
2018-01-10T16:59:39.417Z,69.00
2018-01-10T17:02:07.785Z,69.00
2018-01-10T17:04:35.357Z,69.00
2018-01-10T17:07:03.721Z,69.20
2018-01-10T17:09:32.054Z,69.50
2018-01-10T17:11:59.645Z,69.50
2018-01-10T17:14:27.218Z,69.40
2018-01-10T17:16:54.798Z,69.40
2018-01-10T17:19:22.356Z,69.50
2018-01-10T17:21:49.945Z,69.20
2018-01-10T17:24:17.510Z,69.30
2018-01-10T17:26:45.106Z,69.60
2018-01-10T17:29:12.671Z,69.50
2018-01-10T17:31:41.025Z,69.60
2018-01-10T17:34:08.591Z,69.50
2018-01-10T17:36:36.177Z,69.60
2018-01-10T17:39:04.519Z,68.90
2018-01-10T17:41:32.113Z,68.90
2018-01-10T17:44:00.573Z,69.00
2018-01-10T17:46:28.055Z,69.00
2018-01-10T17:48:55.618Z,68.20
2018-01-10T17:51:23.198Z,68.00
2018-01-10T17:53:50.763Z,67.20
2018-01-10T17:56:18.349Z,66.60
2018-01-10T17:58:45.906Z,67.20
2018-01-10T18:01:13.500Z,66.00
2018-01-10T18:03:41.833Z,66.90
2018-01-10T18:06:09.421Z,66.90
2018-01-10T18:08:36.986Z,67.30
2018-01-10T18:11:05.313Z,67.40
2018-01-10T18:13:32.907Z,67.40
2018-01-10T18:16:00.473Z,66.70
2018-01-10T18:18:28.057Z,66.20
2018-01-10T18:20:55.622Z,66.40
2018-01-10T18:23:23.204Z,66.00
2018-01-10T18:25:50.764Z,67.00
2018-01-10T18:28:18.350Z,67.20
2018-01-10T18:30:45.917Z,66.40
2018-01-10T18:33:13.505Z,66.40
2018-01-10T18:35:41.833Z,66.10
2018-01-10T18:38:09.430Z,66.10
2018-01-10T18:40:37.761Z,66.50
2018-01-10T18:43:05.355Z,66.40
2018-01-10T18:45:32.923Z,67.00
2018-01-10T18:48:00.521Z,66.50
2018-01-10T18:50:28.082Z,66.20
2018-01-10T18:52:55.671Z,66.50
2018-01-10T18:55:23.243Z,66.50
2018-01-10T18:57:50.844Z,66.30
2018-01-10T19:00:18.407Z,66.30
2018-01-10T19:02:45.998Z,66.20
2018-01-10T19:05:13.566Z,66.80
2018-01-10T19:07:41.160Z,66.50
2018-01-10T19:10:09.508Z,66.60
2018-01-10T19:12:37.093Z,66.60
2018-01-10T19:15:04.668Z,66.70
2018-01-10T19:17:33.022Z,66.70
2018-01-10T19:20:00.593Z,66.50
2018-01-10T19:22:28.942Z,67.10
2018-01-10T19:24:56.510Z,67.10
2018-01-10T19:27:24.078Z,67.00
2018-01-10T19:29:51.667Z,67.30
2018-01-10T19:32:19.251Z,67.60
2018-01-10T19:34:46.843Z,67.60
2018-01-10T19:37:14.414Z,67.70
2018-01-10T19:39:42.001Z,67.90
2018-01-10T19:42:09.570Z,67.60
2018-01-10T19:44:37.162Z,67.90
2018-01-10T19:47:04.721Z,68.10
2018-01-10T19:49:32.309Z,68.30
2018-01-10T19:51:59.883Z,68.60
2018-01-10T19:54:28.245Z,68.60
2018-01-10T19:56:56.013Z,68.60
2018-01-10T19:59:23.697Z,68.40
2018-01-10T20:01:51.293Z,68.70
2018-01-10T20:04:18.890Z,68.80
2018-01-10T20:06:46.466Z,68.80
2018-01-10T20:09:14.824Z,68.70
2018-01-10T20:11:42.390Z,68.70
2018-01-10T20:14:10.747Z,68.60
2018-01-10T20:16:38.313Z,68.60
2018-01-10T20:19:05.906Z,68.60
2018-01-10T20:21:33.471Z,68.80
2018-01-10T20:24:01.061Z,68.90
2018-01-10T20:26:28.632Z,68.60
2018-01-10T20:28:56.230Z,68.70
2018-01-10T20:31:24.559Z,68.70
2018-01-10T20:33:52.353Z,68.70
2018-01-10T20:36:19.913Z,68.50
2018-01-10T20:38:47.500Z,68.40
2018-01-10T20:41:15.074Z,67.90
2018-01-10T20:43:42.657Z,68.80
2018-01-10T20:46:10.221Z,68.70
2018-01-10T20:48:38.099Z,68.80
2018-01-10T20:51:05.932Z,68.50
2018-01-10T20:53:33.560Z,68.30
2018-01-10T20:56:02.014Z,68.30
2018-01-10T20:58:30.159Z,68.20
2018-01-10T21:00:57.738Z,69.10
2018-01-10T21:03:25.303Z,68.50
2018-01-10T21:05:52.902Z,68.70
2018-01-10T21:08:20.469Z,69.00
2018-01-10T21:10:48.055Z,69.50
2018-01-10T21:13:15.983Z,68.90
2018-01-10T21:15:43.597Z,68.80
2018-01-10T21:18:11.169Z,68.70
2018-01-10T21:20:38.911Z,68.70
2018-01-10T21:23:09.108Z,69.00
2018-01-10T21:25:39.887Z,69.00
2018-01-10T21:28:10.386Z,68.80
2018-01-10T21:30:38.130Z,68.80
2018-01-10T21:33:08.299Z,68.70
2018-01-10T21:35:35.894Z,68.40
2018-01-10T21:38:03.456Z,68.40
2018-01-10T21:40:31.045Z,68.80
2018-01-10T21:42:58.618Z,68.40
2018-01-10T21:45:26.231Z,68.40
2018-01-10T21:47:53.795Z,68.30
2018-01-10T21:50:21.373Z,69.20
2018-01-10T21:52:48.934Z,69.40
2018-01-10T21:55:16.533Z,69.30
2018-01-10T21:57:44.099Z,69.00
2018-01-10T22:00:12.461Z,69.10
2018-01-10T22:02:40.026Z,69.00
2018-01-10T22:05:07.637Z,68.70
2018-01-10T22:07:35.198Z,69.40
2018-01-10T22:10:02.761Z,68.40
2018-01-10T22:12:30.349Z,68.60
2018-01-10T22:14:57.914Z,68.50
2018-01-10T22:17:25.520Z,68.50
2018-01-10T22:19:53.090Z,69.20
2018-01-10T22:22:20.680Z,68.60
2018-01-10T22:24:48.865Z,69.10
2018-01-10T22:27:16.489Z,68.50
2018-01-10T22:29:44.047Z,68.50
2018-01-10T22:32:11.637Z,68.30
2018-01-10T22:34:39.214Z,69.40
2018-01-10T22:37:06.813Z,68.60
2018-01-10T22:39:34.384Z,68.10
2018-01-10T22:42:02.637Z,68.80
2018-01-10T22:44:30.206Z,68.90
2018-01-10T22:46:57.805Z,68.00
2018-01-10T22:49:25.370Z,68.70
2018-01-10T22:51:52.956Z,69.00
2018-01-10T22:54:20.518Z,69.70
2018-01-10T22:56:48.877Z,68.50
2018-01-10T22:59:16.441Z,68.50
2018-01-10T23:01:44.026Z,68.10
2018-01-10T23:04:11.586Z,68.50
2018-01-10T23:06:39.168Z,68.10
2018-01-10T23:09:06.727Z,69.60
2018-01-10T23:11:34.317Z,68.40
2018-01-10T23:14:01.974Z,68.90
2018-01-10T23:16:29.558Z,68.70
2018-01-10T23:18:57.124Z,68.40
2018-01-10T23:21:25.474Z,69.10
2018-01-10T23:23:53.041Z,69.00
2018-01-10T23:26:20.605Z,68.70
2018-01-10T23:28:48.188Z,68.70
2018-01-10T23:31:15.740Z,68.20
2018-01-10T23:33:44.089Z,68.00
2018-01-10T23:36:11.656Z,67.90
2018-01-10T23:38:39.242Z,68.10
2018-01-10T23:41:07.574Z,68.20
2018-01-10T23:43:35.158Z,68.20
2018-01-10T23:46:02.717Z,68.70
2018-01-10T23:48:30.304Z,69.00
2018-01-10T23:50:57.870Z,68.60
2018-01-10T23:53:25.463Z,68.80
2018-01-10T23:55:53.017Z,68.50
2018-01-10T23:58:20.605Z,68.40
